sensor_id;sensor_type;location;lat;lon;timestamp;P1;durP1;ratioP1;P2;durP2;ratioP2
8482;SDS011;4278;42.668;23.312;2023-05-18T00:00:21;2.43;;;1.60;;
8482;SDS011;4278;42.668;23.312;2023-05-18T00:02:48;1.87;;;1.40;;
8482;SDS011;4278;42.668;23.312;2023-05-18T00:05:15;1.93;;;1.73;;
8482;SDS011;4278;42.668;23.312;2023-05-18T00:07:44;1.57;;;1.47;;
8482;SDS011;4278;42.668;23.312;2023-05-18T00:10:11;1.67;;;1.47;;
8482;SDS011;4278;42.668;23.312;2023-05-18T00:12:38;1.77;;;1.67;;
8482;SDS011;4278;42.668;23.312;2023-05-18T00:15:06;2.10;;;1.77;;
8482;SDS011;4278;42.668;23.312;2023-05-18T00:17:34;1.97;;;1.47;;
8482;SDS011;4278;42.668;23.312;2023-05-18T00:20:01;2.83;;;1.30;;
8482;SDS011;4278;42.668;23.312;2023-05-18T00:22:29;2.60;;;1.50;;
8482;SDS011;4278;42.668;23.312;2023-05-18T00:24:57;2.40;;;1.40;;
8482;SDS011;4278;42.668;23.312;2023-05-18T00:27:24;3.00;;;1.43;;
8482;SDS011;4278;42.668;23.312;2023-05-18T00:29:51;1.30;;;1.20;;
8482;SDS011;4278;42.668;23.312;2023-05-18T00:32:18;1.53;;;1.40;;
8482;SDS011;4278;42.668;23.312;2023-05-18T00:34:45;1.33;;;1.23;;
8482;SDS011;4278;42.668;23.312;2023-05-18T00:37:11;2.00;;;1.50;;
8482;SDS011;4278;42.668;23.312;2023-05-18T00:39:38;1.40;;;1.30;;
8482;SDS011;4278;42.668;23.312;2023-05-18T00:42:06;1.67;;;1.50;;
8482;SDS011;4278;42.668;23.312;2023-05-18T00:44:33;3.00;;;1.30;;
8482;SDS011;4278;42.668;23.312;2023-05-18T00:47:00;4.30;;;1.33;;
8482;SDS011;4278;42.668;23.312;2023-05-18T00:49:27;1.53;;;1.07;;
8482;SDS011;4278;42.668;23.312;2023-05-18T00:51:54;3.17;;;1.40;;
8482;SDS011;4278;42.668;23.312;2023-05-18T00:54:21;1.40;;;1.30;;
8482;SDS011;4278;42.668;23.312;2023-05-18T00:56:48;1.40;;;1.30;;
8482;SDS011;4278;42.668;23.312;2023-05-18T00:59:17;2.37;;;1.30;;
8482;SDS011;4278;42.668;23.312;2023-05-18T01:01:44;1.50;;;1.40;;
8482;SDS011;4278;42.668;23.312;2023-05-18T01:04:12;1.27;;;1.07;;
8482;SDS011;4278;42.668;23.312;2023-05-18T01:06:39;3.13;;;1.30;;
8482;SDS011;4278;42.668;23.312;2023-05-18T01:09:07;1.30;;;1.20;;
8482;SDS011;4278;42.668;23.312;2023-05-18T01:11:43;3.80;;;1.60;;
8482;SDS011;4278;42.668;23.312;2023-05-18T01:14:19;1.97;;;1.13;;
8482;SDS011;4278;42.668;23.312;2023-05-18T01:16:54;1.50;;;1.40;;
8482;SDS011;4278;42.668;23.312;2023-05-18T01:19:42;1.63;;;1.10;;
8482;SDS011;4278;42.668;23.312;2023-05-18T01:22:31;1.30;;;1.20;;
8482;SDS011;4278;42.668;23.312;2023-05-18T01:25:04;3.17;;;1.23;;
8482;SDS011;4278;42.668;23.312;2023-05-18T01:27:43;1.60;;;1.50;;
8482;SDS011;4278;42.668;23.312;2023-05-18T01:30:12;2.03;;;1.40;;
8482;SDS011;4278;42.668;23.312;2023-05-18T01:32:41;1.77;;;1.20;;
8482;SDS011;4278;42.668;23.312;2023-05-18T01:35:10;2.73;;;1.30;;
8482;SDS011;4278;42.668;23.312;2023-05-18T01:37:37;1.70;;;1.30;;
8482;SDS011;4278;42.668;23.312;2023-05-18T01:40:04;1.40;;;1.30;;
8482;SDS011;4278;42.668;23.312;2023-05-18T01:42:33;1.73;;;1.40;;
8482;SDS011;4278;42.668;23.312;2023-05-18T01:45:07;1.50;;;1.40;;
8482;SDS011;4278;42.668;23.312;2023-05-18T01:47:38;1.30;;;1.20;;
8482;SDS011;4278;42.668;23.312;2023-05-18T01:50:11;1.30;;;1.20;;
8482;SDS011;4278;42.668;23.312;2023-05-18T01:52:41;1.47;;;1.20;;
8482;SDS011;4278;42.668;23.312;2023-05-18T01:55:12;1.40;;;1.30;;
8482;SDS011;4278;42.668;23.312;2023-05-18T01:57:40;1.27;;;1.17;;
8482;SDS011;4278;42.668;23.312;2023-05-18T02:00:11;2.03;;;1.30;;
8482;SDS011;4278;42.668;23.312;2023-05-18T02:02:40;2.93;;;1.30;;
8482;SDS011;4278;42.668;23.312;2023-05-18T02:05:07;1.63;;;1.40;;
8482;SDS011;4278;42.668;23.312;2023-05-18T02:07:36;2.87;;;1.40;;
8482;SDS011;4278;42.668;23.312;2023-05-18T02:10:03;2.13;;;1.30;;
8482;SDS011;4278;42.668;23.312;2023-05-18T02:12:31;2.90;;;1.40;;
8482;SDS011;4278;42.668;23.312;2023-05-18T02:14:58;2.37;;;1.47;;
8482;SDS011;4278;42.668;23.312;2023-05-18T02:17:30;2.73;;;1.60;;
8482;SDS011;4278;42.668;23.312;2023-05-18T02:19:57;1.83;;;1.50;;
8482;SDS011;4278;42.668;23.312;2023-05-18T02:22:24;1.80;;;1.70;;
8482;SDS011;4278;42.668;23.312;2023-05-18T02:24:51;2.20;;;2.00;;
8482;SDS011;4278;42.668;23.312;2023-05-18T02:27:18;3.67;;;1.80;;
8482;SDS011;4278;42.668;23.312;2023-05-18T02:29:45;2.23;;;1.83;;
8482;SDS011;4278;42.668;23.312;2023-05-18T02:32:11;2.13;;;1.80;;
8482;SDS011;4278;42.668;23.312;2023-05-18T02:34:39;6.20;;;1.57;;
8482;SDS011;4278;42.668;23.312;2023-05-18T02:37:07;2.70;;;1.80;;
8482;SDS011;4278;42.668;23.312;2023-05-18T02:39:34;3.60;;;1.93;;
8482;SDS011;4278;42.668;23.312;2023-05-18T02:42:01;1.87;;;1.77;;
8482;SDS011;4278;42.668;23.312;2023-05-18T02:44:28;3.27;;;2.20;;
8482;SDS011;4278;42.668;23.312;2023-05-18T02:46:55;2.73;;;1.70;;
8482;SDS011;4278;42.668;23.312;2023-05-18T02:49:21;3.17;;;2.13;;
8482;SDS011;4278;42.668;23.312;2023-05-18T02:51:49;2.80;;;2.00;;
8482;SDS011;4278;42.668;23.312;2023-05-18T02:54:16;3.60;;;1.83;;
8482;SDS011;4278;42.668;23.312;2023-05-18T02:56:43;2.93;;;1.60;;
8482;SDS011;4278;42.668;23.312;2023-05-18T02:59:10;2.70;;;1.90;;
8482;SDS011;4278;42.668;23.312;2023-05-18T03:01:37;4.07;;;2.07;;
8482;SDS011;4278;42.668;23.312;2023-05-18T03:04:05;2.80;;;2.27;;
8482;SDS011;4278;42.668;23.312;2023-05-18T03:06:31;2.20;;;2.00;;
8482;SDS011;4278;42.668;23.312;2023-05-18T03:09:01;3.03;;;2.03;;
8482;SDS011;4278;42.668;23.312;2023-05-18T03:11:28;4.53;;;2.40;;
8482;SDS011;4278;42.668;23.312;2023-05-18T03:13:55;3.27;;;2.27;;
8482;SDS011;4278;42.668;23.312;2023-05-18T03:16:22;3.53;;;2.60;;
8482;SDS011;4278;42.668;23.312;2023-05-18T03:18:52;2.50;;;2.30;;
8482;SDS011;4278;42.668;23.312;2023-05-18T03:21:19;2.80;;;2.33;;
8482;SDS011;4278;42.668;23.312;2023-05-18T03:23:46;3.10;;;2.40;;
8482;SDS011;4278;42.668;23.312;2023-05-18T03:26:14;2.17;;;1.97;;
8482;SDS011;4278;42.668;23.312;2023-05-18T03:28:41;3.10;;;2.20;;
8482;SDS011;4278;42.668;23.312;2023-05-18T03:31:07;2.90;;;1.87;;
8482;SDS011;4278;42.668;23.312;2023-05-18T03:33:35;3.93;;;2.33;;
8482;SDS011;4278;42.668;23.312;2023-05-18T03:36:02;2.70;;;2.00;;
8482;SDS011;4278;42.668;23.312;2023-05-18T03:38:30;2.87;;;2.07;;
8482;SDS011;4278;42.668;23.312;2023-05-18T03:40:56;2.73;;;2.40;;
8482;SDS011;4278;42.668;23.312;2023-05-18T03:43:25;2.60;;;2.40;;
8482;SDS011;4278;42.668;23.312;2023-05-18T03:45:53;3.93;;;2.30;;
8482;SDS011;4278;42.668;23.312;2023-05-18T03:48:21;5.30;;;2.80;;
8482;SDS011;4278;42.668;23.312;2023-05-18T03:50:47;3.10;;;2.80;;
8482;SDS011;4278;42.668;23.312;2023-05-18T03:53:14;3.17;;;2.90;;
8482;SDS011;4278;42.668;23.312;2023-05-18T03:55:43;2.97;;;2.73;;
8482;SDS011;4278;42.668;23.312;2023-05-18T03:58:10;3.20;;;2.77;;
8482;SDS011;4278;42.668;23.312;2023-05-18T04:00:38;6.57;;;3.03;;
8482;SDS011;4278;42.668;23.312;2023-05-18T04:03:05;4.30;;;3.10;;
8482;SDS011;4278;42.668;23.312;2023-05-18T04:05:31;3.47;;;3.00;;
8482;SDS011;4278;42.668;23.312;2023-05-18T04:07:59;4.13;;;3.30;;
8482;SDS011;4278;42.668;23.312;2023-05-18T04:10:25;4.37;;;3.07;;
8482;SDS011;4278;42.668;23.312;2023-05-18T04:12:52;3.77;;;3.30;;
8482;SDS011;4278;42.668;23.312;2023-05-18T04:15:19;4.23;;;3.60;;
8482;SDS011;4278;42.668;23.312;2023-05-18T04:17:47;4.60;;;3.23;;
8482;SDS011;4278;42.668;23.312;2023-05-18T04:20:15;3.87;;;3.47;;
8482;SDS011;4278;42.668;23.312;2023-05-18T04:22:43;4.20;;;3.20;;
8482;SDS011;4278;42.668;23.312;2023-05-18T04:25:14;4.67;;;3.77;;
8482;SDS011;4278;42.668;23.312;2023-05-18T04:27:41;4.03;;;3.60;;
8482;SDS011;4278;42.668;23.312;2023-05-18T04:30:09;4.20;;;3.80;;
8482;SDS011;4278;42.668;23.312;2023-05-18T04:32:37;5.90;;;3.77;;
8482;SDS011;4278;42.668;23.312;2023-05-18T04:35:08;4.47;;;3.63;;
8482;SDS011;4278;42.668;23.312;2023-05-18T04:37:35;7.07;;;4.07;;
8482;SDS011;4278;42.668;23.312;2023-05-18T04:40:04;6.73;;;4.20;;
8482;SDS011;4278;42.668;23.312;2023-05-18T04:42:32;4.97;;;3.97;;
8482;SDS011;4278;42.668;23.312;2023-05-18T04:44:59;5.03;;;3.70;;
8482;SDS011;4278;42.668;23.312;2023-05-18T04:47:29;5.87;;;4.50;;
8482;SDS011;4278;42.668;23.312;2023-05-18T04:49:56;5.97;;;3.70;;
8482;SDS011;4278;42.668;23.312;2023-05-18T04:52:25;4.30;;;3.77;;
8482;SDS011;4278;42.668;23.312;2023-05-18T04:54:54;6.03;;;3.57;;
8482;SDS011;4278;42.668;23.312;2023-05-18T04:57:21;9.70;;;3.50;;
8482;SDS011;4278;42.668;23.312;2023-05-18T04:59:48;3.80;;;3.50;;
8482;SDS011;4278;42.668;23.312;2023-05-18T05:02:17;5.10;;;3.90;;
8482;SDS011;4278;42.668;23.312;2023-05-18T05:04:44;5.10;;;3.63;;
8482;SDS011;4278;42.668;23.312;2023-05-18T05:07:11;5.10;;;3.50;;
8482;SDS011;4278;42.668;23.312;2023-05-18T05:09:40;4.10;;;3.70;;
8482;SDS011;4278;42.668;23.312;2023-05-18T05:12:07;4.37;;;3.77;;
8482;SDS011;4278;42.668;23.312;2023-05-18T05:14:34;4.80;;;3.90;;
8482;SDS011;4278;42.668;23.312;2023-05-18T05:17:01;4.03;;;3.63;;
8482;SDS011;4278;42.668;23.312;2023-05-18T05:19:28;4.37;;;3.93;;
8482;SDS011;4278;42.668;23.312;2023-05-18T05:21:55;3.87;;;3.30;;
8482;SDS011;4278;42.668;23.312;2023-05-18T05:24:23;4.80;;;3.93;;
8482;SDS011;4278;42.668;23.312;2023-05-18T05:26:52;4.63;;;3.73;;
8482;SDS011;4278;42.668;23.312;2023-05-18T05:29:19;5.43;;;3.93;;
8482;SDS011;4278;42.668;23.312;2023-05-18T05:31:48;4.97;;;3.90;;
8482;SDS011;4278;42.668;23.312;2023-05-18T05:34:14;5.83;;;3.80;;
8482;SDS011;4278;42.668;23.312;2023-05-18T05:36:41;4.23;;;3.83;;
8482;SDS011;4278;42.668;23.312;2023-05-18T05:39:08;4.97;;;3.90;;
8482;SDS011;4278;42.668;23.312;2023-05-18T05:41:36;5.20;;;4.27;;
8482;SDS011;4278;42.668;23.312;2023-05-18T05:44:05;5.50;;;4.60;;
8482;SDS011;4278;42.668;23.312;2023-05-18T05:46:32;6.00;;;4.33;;
8482;SDS011;4278;42.668;23.312;2023-05-18T05:48:59;7.10;;;5.20;;
8482;SDS011;4278;42.668;23.312;2023-05-18T05:51:26;7.57;;;5.37;;
8482;SDS011;4278;42.668;23.312;2023-05-18T05:53:53;6.03;;;4.80;;
8482;SDS011;4278;42.668;23.312;2023-05-18T05:56:20;4.80;;;4.30;;
8482;SDS011;4278;42.668;23.312;2023-05-18T05:58:46;5.27;;;4.77;;
8482;SDS011;4278;42.668;23.312;2023-05-18T06:01:15;5.87;;;4.50;;
8482;SDS011;4278;42.668;23.312;2023-05-18T06:03:42;5.37;;;4.57;;
8482;SDS011;4278;42.668;23.312;2023-05-18T06:06:09;8.43;;;5.63;;
8482;SDS011;4278;42.668;23.312;2023-05-18T06:08:36;6.70;;;5.27;;
8482;SDS011;4278;42.668;23.312;2023-05-18T06:11:03;5.77;;;5.13;;
8482;SDS011;4278;42.668;23.312;2023-05-18T06:13:29;6.37;;;4.40;;
8482;SDS011;4278;42.668;23.312;2023-05-18T06:15:56;8.73;;;4.63;;
8482;SDS011;4278;42.668;23.312;2023-05-18T06:18:24;6.90;;;5.57;;
8482;SDS011;4278;42.668;23.312;2023-05-18T06:20:51;7.43;;;5.60;;
8482;SDS011;4278;42.668;23.312;2023-05-18T06:23:18;7.00;;;5.80;;
8482;SDS011;4278;42.668;23.312;2023-05-18T06:25:46;7.40;;;5.63;;
8482;SDS011;4278;42.668;23.312;2023-05-18T06:28:13;7.57;;;5.70;;
8482;SDS011;4278;42.668;23.312;2023-05-18T06:30:41;13.00;;;9.63;;
8482;SDS011;4278;42.668;23.312;2023-05-18T06:33:07;11.83;;;7.87;;
8482;SDS011;4278;42.668;23.312;2023-05-18T06:35:36;30.30;;;16.97;;
8482;SDS011;4278;42.668;23.312;2023-05-18T06:38:02;12.60;;;8.60;;
8482;SDS011;4278;42.668;23.312;2023-05-18T06:40:29;16.77;;;10.73;;
8482;SDS011;4278;42.668;23.312;2023-05-18T06:42:57;12.63;;;9.10;;
8482;SDS011;4278;42.668;23.312;2023-05-18T06:45:24;8.47;;;6.43;;
8482;SDS011;4278;42.668;23.312;2023-05-18T06:47:50;8.23;;;6.07;;
8482;SDS011;4278;42.668;23.312;2023-05-18T06:50:17;9.23;;;6.13;;
8482;SDS011;4278;42.668;23.312;2023-05-18T06:52:46;10.63;;;6.10;;
8482;SDS011;4278;42.668;23.312;2023-05-18T06:55:15;7.43;;;5.90;;
8482;SDS011;4278;42.668;23.312;2023-05-18T06:57:42;8.63;;;5.70;;
8482;SDS011;4278;42.668;23.312;2023-05-18T07:00:10;7.00;;;4.90;;
8482;SDS011;4278;42.668;23.312;2023-05-18T07:02:37;15.27;;;9.80;;
8482;SDS011;4278;42.668;23.312;2023-05-18T07:05:05;17.40;;;10.27;;
8482;SDS011;4278;42.668;23.312;2023-05-18T07:07:33;15.60;;;9.80;;
8482;SDS011;4278;42.668;23.312;2023-05-18T07:10:02;15.77;;;11.17;;
8482;SDS011;4278;42.668;23.312;2023-05-18T07:12:29;13.18;;;8.65;;
8482;SDS011;4278;42.668;23.312;2023-05-18T07:14:56;8.80;;;6.10;;
8482;SDS011;4278;42.668;23.312;2023-05-18T07:17:23;9.57;;;6.10;;
8482;SDS011;4278;42.668;23.312;2023-05-18T07:19:50;9.00;;;6.10;;
8482;SDS011;4278;42.668;23.312;2023-05-18T07:22:17;9.30;;;5.67;;
8482;SDS011;4278;42.668;23.312;2023-05-18T07:24:43;13.80;;;10.83;;
8482;SDS011;4278;42.668;23.312;2023-05-18T07:27:14;24.93;;;14.73;;
8482;SDS011;4278;42.668;23.312;2023-05-18T07:29:41;18.30;;;11.27;;
8482;SDS011;4278;42.668;23.312;2023-05-18T07:32:07;19.07;;;13.23;;
8482;SDS011;4278;42.668;23.312;2023-05-18T07:34:34;13.93;;;7.50;;
8482;SDS011;4278;42.668;23.312;2023-05-18T07:37:01;10.70;;;7.87;;
8482;SDS011;4278;42.668;23.312;2023-05-18T07:39:29;14.90;;;8.73;;
8482;SDS011;4278;42.668;23.312;2023-05-18T07:41:55;11.67;;;8.53;;
8482;SDS011;4278;42.668;23.312;2023-05-18T07:44:24;13.80;;;8.17;;
8482;SDS011;4278;42.668;23.312;2023-05-18T07:46:51;11.90;;;7.80;;
8482;SDS011;4278;42.668;23.312;2023-05-18T07:49:18;13.70;;;8.50;;
8482;SDS011;4278;42.668;23.312;2023-05-18T07:51:47;12.73;;;7.13;;
8482;SDS011;4278;42.668;23.312;2023-05-18T07:54:14;53.83;;;23.73;;
8482;SDS011;4278;42.668;23.312;2023-05-18T07:56:41;17.13;;;8.03;;
8482;SDS011;4278;42.668;23.312;2023-05-18T07:59:08;9.27;;;7.40;;
8482;SDS011;4278;42.668;23.312;2023-05-18T08:01:37;51.20;;;22.37;;
8482;SDS011;4278;42.668;23.312;2023-05-18T08:04:05;21.83;;;10.90;;
8482;SDS011;4278;42.668;23.312;2023-05-18T08:06:32;12.17;;;8.77;;
8482;SDS011;4278;42.668;23.312;2023-05-18T08:08:59;12.20;;;7.47;;
8482;SDS011;4278;42.668;23.312;2023-05-18T08:11:26;13.30;;;8.33;;
8482;SDS011;4278;42.668;23.312;2023-05-18T08:13:52;10.47;;;7.17;;
8482;SDS011;4278;42.668;23.312;2023-05-18T08:16:19;10.70;;;7.13;;
8482;SDS011;4278;42.668;23.312;2023-05-18T08:18:47;11.20;;;6.67;;
8482;SDS011;4278;42.668;23.312;2023-05-18T08:21:16;13.70;;;7.67;;
8482;SDS011;4278;42.668;23.312;2023-05-18T08:23:43;12.63;;;7.67;;
8482;SDS011;4278;42.668;23.312;2023-05-18T08:26:10;12.70;;;7.53;;
8482;SDS011;4278;42.668;23.312;2023-05-18T08:28:37;10.00;;;7.97;;
8482;SDS011;4278;42.668;23.312;2023-05-18T08:31:04;21.17;;;11.17;;
8482;SDS011;4278;42.668;23.312;2023-05-18T08:33:31;15.03;;;8.43;;
8482;SDS011;4278;42.668;23.312;2023-05-18T08:35:59;12.40;;;8.97;;
8482;SDS011;4278;42.668;23.312;2023-05-18T08:38:28;17.00;;;7.70;;
8482;SDS011;4278;42.668;23.312;2023-05-18T08:40:58;18.37;;;8.80;;
8482;SDS011;4278;42.668;23.312;2023-05-18T08:43:31;13.73;;;8.77;;
8482;SDS011;4278;42.668;23.312;2023-05-18T08:46:03;13.37;;;9.10;;
8482;SDS011;4278;42.668;23.312;2023-05-18T08:48:35;16.27;;;9.00;;
8482;SDS011;4278;42.668;23.312;2023-05-18T08:51:04;15.40;;;9.13;;
8482;SDS011;4278;42.668;23.312;2023-05-18T08:53:33;16.03;;;9.67;;
8482;SDS011;4278;42.668;23.312;2023-05-18T08:56:04;14.67;;;10.13;;
8482;SDS011;4278;42.668;23.312;2023-05-18T08:58:33;17.00;;;9.93;;
8482;SDS011;4278;42.668;23.312;2023-05-18T09:01:01;16.13;;;9.97;;
8482;SDS011;4278;42.668;23.312;2023-05-18T09:03:30;13.00;;;9.23;;
8482;SDS011;4278;42.668;23.312;2023-05-18T09:05:58;11.63;;;8.97;;
8482;SDS011;4278;42.668;23.312;2023-05-18T09:08:28;12.70;;;9.87;;
8482;SDS011;4278;42.668;23.312;2023-05-18T09:10:56;12.83;;;7.63;;
8482;SDS011;4278;42.668;23.312;2023-05-18T09:13:23;11.73;;;9.00;;
8482;SDS011;4278;42.668;23.312;2023-05-18T09:15:51;15.40;;;7.93;;
8482;SDS011;4278;42.668;23.312;2023-05-18T09:18:18;12.13;;;8.77;;
8482;SDS011;4278;42.668;23.312;2023-05-18T09:20:44;10.97;;;7.27;;
8482;SDS011;4278;42.668;23.312;2023-05-18T09:23:11;11.60;;;8.73;;
8482;SDS011;4278;42.668;23.312;2023-05-18T09:25:42;12.43;;;7.93;;
8482;SDS011;4278;42.668;23.312;2023-05-18T09:28:11;23.30;;;17.97;;
8482;SDS011;4278;42.668;23.312;2023-05-18T09:30:39;13.17;;;8.83;;
8482;SDS011;4278;42.668;23.312;2023-05-18T09:33:14;12.47;;;8.67;;
8482;SDS011;4278;42.668;23.312;2023-05-18T09:35:43;12.70;;;9.43;;
8482;SDS011;4278;42.668;23.312;2023-05-18T09:38:11;17.23;;;9.73;;
8482;SDS011;4278;42.668;23.312;2023-05-18T09:40:44;12.47;;;8.70;;
8482;SDS011;4278;42.668;23.312;2023-05-18T09:43:11;11.73;;;8.87;;
8482;SDS011;4278;42.668;23.312;2023-05-18T09:45:38;15.87;;;10.20;;
8482;SDS011;4278;42.668;23.312;2023-05-18T09:48:08;15.93;;;8.43;;
8482;SDS011;4278;42.668;23.312;2023-05-18T09:50:35;17.63;;;8.20;;
8482;SDS011;4278;42.668;23.312;2023-05-18T09:53:03;12.77;;;8.30;;
8482;SDS011;4278;42.668;23.312;2023-05-18T09:55:32;12.53;;;7.67;;
8482;SDS011;4278;42.668;23.312;2023-05-18T09:58:04;11.53;;;7.27;;
8482;SDS011;4278;42.668;23.312;2023-05-18T10:00:36;13.57;;;9.10;;
8482;SDS011;4278;42.668;23.312;2023-05-18T10:03:15;9.67;;;7.77;;
8482;SDS011;4278;42.668;23.312;2023-05-18T10:05:43;10.43;;;6.77;;
8482;SDS011;4278;42.668;23.312;2023-05-18T10:08:11;9.20;;;7.17;;
8482;SDS011;4278;42.668;23.312;2023-05-18T10:10:40;10.43;;;7.90;;
8482;SDS011;4278;42.668;23.312;2023-05-18T10:13:10;9.00;;;7.87;;
8482;SDS011;4278;42.668;23.312;2023-05-18T10:15:51;11.03;;;8.00;;
8482;SDS011;4278;42.668;23.312;2023-05-18T10:18:20;12.67;;;7.50;;
8482;SDS011;4278;42.668;23.312;2023-05-18T10:20:48;10.87;;;7.77;;
8482;SDS011;4278;42.668;23.312;2023-05-18T10:23:17;13.57;;;8.50;;
8482;SDS011;4278;42.668;23.312;2023-05-18T10:25:45;10.77;;;7.73;;
8482;SDS011;4278;42.668;23.312;2023-05-18T10:28:16;12.17;;;9.17;;
8482;SDS011;4278;42.668;23.312;2023-05-18T10:30:50;11.30;;;7.83;;
8482;SDS011;4278;42.668;23.312;2023-05-18T10:33:19;12.13;;;7.60;;
8482;SDS011;4278;42.668;23.312;2023-05-18T10:35:49;10.37;;;6.90;;
8482;SDS011;4278;42.668;23.312;2023-05-18T10:38:17;12.97;;;7.50;;
8482;SDS011;4278;42.668;23.312;2023-05-18T10:40:46;13.30;;;7.80;;
8482;SDS011;4278;42.668;23.312;2023-05-18T10:43:16;7.97;;;6.90;;
8482;SDS011;4278;42.668;23.312;2023-05-18T10:45:45;8.27;;;6.63;;
8482;SDS011;4278;42.668;23.312;2023-05-18T10:48:14;13.80;;;6.83;;
8482;SDS011;4278;42.668;23.312;2023-05-18T10:50:41;11.50;;;7.10;;
8482;SDS011;4278;42.668;23.312;2023-05-18T10:53:09;11.33;;;7.13;;
8482;SDS011;4278;42.668;23.312;2023-05-18T10:55:38;8.40;;;6.77;;
8482;SDS011;4278;42.668;23.312;2023-05-18T10:58:06;9.83;;;6.70;;
8482;SDS011;4278;42.668;23.312;2023-05-18T11:00:39;8.03;;;7.13;;
8482;SDS011;4278;42.668;23.312;2023-05-18T11:03:09;10.37;;;6.93;;
8482;SDS011;4278;42.668;23.312;2023-05-18T11:05:38;13.00;;;6.77;;
8482;SDS011;4278;42.668;23.312;2023-05-18T11:08:06;10.20;;;7.40;;
8482;SDS011;4278;42.668;23.312;2023-05-18T11:10:34;8.57;;;7.10;;
8482;SDS011;4278;42.668;23.312;2023-05-18T11:13:07;10.40;;;7.33;;
8482;SDS011;4278;42.668;23.312;2023-05-18T11:18:35;13.13;;;7.63;;
8482;SDS011;4278;42.668;23.312;2023-05-18T11:21:28;13.27;;;7.47;;
8482;SDS011;4278;42.668;23.312;2023-05-18T11:24:16;11.30;;;6.93;;
8482;SDS011;4278;42.668;23.312;2023-05-18T11:26:44;11.73;;;7.10;;
8482;SDS011;4278;42.668;23.312;2023-05-18T11:29:15;15.63;;;8.30;;
8482;SDS011;4278;42.668;23.312;2023-05-18T11:31:45;14.73;;;6.97;;
8482;SDS011;4278;42.668;23.312;2023-05-18T11:37:09;7.13;;;5.60;;
8482;SDS011;4278;42.668;23.312;2023-05-18T11:39:37;7.13;;;5.67;;
8482;SDS011;4278;42.668;23.312;2023-05-18T11:42:05;8.63;;;6.47;;
8482;SDS011;4278;42.668;23.312;2023-05-18T11:44:33;9.40;;;6.40;;
8482;SDS011;4278;42.668;23.312;2023-05-18T11:47:02;8.50;;;5.33;;
8482;SDS011;4278;42.668;23.312;2023-05-18T11:49:35;5.83;;;5.20;;
8482;SDS011;4278;42.668;23.312;2023-05-18T11:52:07;6.97;;;5.30;;
8482;SDS011;4278;42.668;23.312;2023-05-18T11:54:39;7.37;;;5.20;;
8482;SDS011;4278;42.668;23.312;2023-05-18T11:57:08;9.40;;;4.77;;
8482;SDS011;4278;42.668;23.312;2023-05-18T11:59:36;5.83;;;4.73;;
8482;SDS011;4278;42.668;23.312;2023-05-18T12:02:05;5.73;;;4.33;;
8482;SDS011;4278;42.668;23.312;2023-05-18T12:04:40;5.30;;;3.80;;
8482;SDS011;4278;42.668;23.312;2023-05-18T12:07:08;5.43;;;4.20;;
8482;SDS011;4278;42.668;23.312;2023-05-18T12:09:36;4.80;;;3.60;;
8482;SDS011;4278;42.668;23.312;2023-05-18T12:12:07;5.07;;;3.87;;
8482;SDS011;4278;42.668;23.312;2023-05-18T12:14:34;5.47;;;4.33;;
8482;SDS011;4278;42.668;23.312;2023-05-18T12:17:02;4.20;;;3.40;;
8482;SDS011;4278;42.668;23.312;2023-05-18T12:19:36;8.47;;;4.40;;
8482;SDS011;4278;42.668;23.312;2023-05-18T12:22:04;5.40;;;3.57;;
8482;SDS011;4278;42.668;23.312;2023-05-18T12:24:33;4.10;;;3.70;;
8482;SDS011;4278;42.668;23.312;2023-05-18T12:27:00;3.97;;;3.57;;
8482;SDS011;4278;42.668;23.312;2023-05-18T12:29:28;9.23;;;3.40;;
8482;SDS011;4278;42.668;23.312;2023-05-18T12:31:55;10.60;;;5.73;;
8482;SDS011;4278;42.668;23.312;2023-05-18T12:34:26;10.90;;;4.13;;
8482;SDS011;4278;42.668;23.312;2023-05-18T12:36:55;7.10;;;4.30;;
8482;SDS011;4278;42.668;23.312;2023-05-18T12:39:23;6.73;;;4.90;;
8482;SDS011;4278;42.668;23.312;2023-05-18T12:41:50;7.50;;;4.17;;
8482;SDS011;4278;42.668;23.312;2023-05-18T12:44:17;6.90;;;4.37;;
8482;SDS011;4278;42.668;23.312;2023-05-18T12:46:44;8.87;;;4.50;;
8482;SDS011;4278;42.668;23.312;2023-05-18T12:49:11;9.97;;;4.10;;
8482;SDS011;4278;42.668;23.312;2023-05-18T12:51:38;5.27;;;4.00;;
8482;SDS011;4278;42.668;23.312;2023-05-18T12:54:06;5.97;;;4.10;;
8482;SDS011;4278;42.668;23.312;2023-05-18T12:56:49;10.27;;;4.47;;
8482;SDS011;4278;42.668;23.312;2023-05-18T12:59:23;5.70;;;4.13;;
8482;SDS011;4278;42.668;23.312;2023-05-18T13:01:51;16.27;;;6.07;;
8482;SDS011;4278;42.668;23.312;2023-05-18T13:04:17;13.23;;;4.83;;
8482;SDS011;4278;42.668;23.312;2023-05-18T13:06:44;6.43;;;4.40;;
8482;SDS011;4278;42.668;23.312;2023-05-18T13:09:14;6.60;;;4.13;;
8482;SDS011;4278;42.668;23.312;2023-05-18T13:11:45;10.83;;;4.47;;
8482;SDS011;4278;42.668;23.312;2023-05-18T13:14:13;6.77;;;4.40;;
8482;SDS011;4278;42.668;23.312;2023-05-18T13:16:48;10.17;;;5.80;;
8482;SDS011;4278;42.668;23.312;2023-05-18T13:19:16;11.60;;;8.40;;
8482;SDS011;4278;42.668;23.312;2023-05-18T13:21:43;6.83;;;4.60;;
8482;SDS011;4278;42.668;23.312;2023-05-18T13:24:10;7.93;;;4.87;;
8482;SDS011;4278;42.668;23.312;2023-05-18T13:26:40;6.50;;;5.07;;
8482;SDS011;4278;42.668;23.312;2023-05-18T13:29:06;7.23;;;4.77;;
8482;SDS011;4278;42.668;23.312;2023-05-18T13:31:33;7.83;;;5.27;;
8482;SDS011;4278;42.668;23.312;2023-05-18T13:34:00;5.10;;;4.47;;
8482;SDS011;4278;42.668;23.312;2023-05-18T13:36:27;4.70;;;4.20;;
8482;SDS011;4278;42.668;23.312;2023-05-18T13:38:57;5.87;;;4.83;;
8482;SDS011;4278;42.668;23.312;2023-05-18T13:41:24;6.00;;;4.00;;
8482;SDS011;4278;42.668;23.312;2023-05-18T13:43:53;6.87;;;4.80;;
8482;SDS011;4278;42.668;23.312;2023-05-18T13:46:19;7.78;;;4.47;;
8482;SDS011;4278;42.668;23.312;2023-05-18T13:48:46;8.80;;;5.73;;
8482;SDS011;4278;42.668;23.312;2023-05-18T13:51:13;6.57;;;5.20;;
8482;SDS011;4278;42.668;23.312;2023-05-18T13:53:40;10.20;;;5.30;;
8482;SDS011;4278;42.668;23.312;2023-05-18T13:56:07;9.67;;;4.87;;
8482;SDS011;4278;42.668;23.312;2023-05-18T13:58:33;7.73;;;5.40;;
8482;SDS011;4278;42.668;23.312;2023-05-18T14:01:02;6.07;;;4.90;;
8482;SDS011;4278;42.668;23.312;2023-05-18T14:03:31;6.40;;;4.53;;
8482;SDS011;4278;42.668;23.312;2023-05-18T14:06:00;6.30;;;4.70;;
8482;SDS011;4278;42.668;23.312;2023-05-18T14:08:27;6.53;;;4.80;;
8482;SDS011;4278;42.668;23.312;2023-05-18T14:10:54;6.73;;;4.73;;
8482;SDS011;4278;42.668;23.312;2023-05-18T14:13:21;9.07;;;4.93;;
8482;SDS011;4278;42.668;23.312;2023-05-18T14:15:48;5.70;;;5.17;;
8482;SDS011;4278;42.668;23.312;2023-05-18T14:18:16;9.00;;;5.43;;
8482;SDS011;4278;42.668;23.312;2023-05-18T14:20:43;9.27;;;6.35;;
8482;SDS011;4278;42.668;23.312;2023-05-18T14:23:11;8.18;;;5.72;;
8482;SDS011;4278;42.668;23.312;2023-05-18T14:25:38;6.17;;;5.33;;
8482;SDS011;4278;42.668;23.312;2023-05-18T14:28:05;6.47;;;5.00;;
8482;SDS011;4278;42.668;23.312;2023-05-18T14:30:32;7.73;;;6.10;;
8482;SDS011;4278;42.668;23.312;2023-05-18T14:32:58;7.70;;;5.33;;
8482;SDS011;4278;42.668;23.312;2023-05-18T14:35:26;10.00;;;5.40;;
8482;SDS011;4278;42.668;23.312;2023-05-18T14:37:53;5.47;;;4.87;;
8482;SDS011;4278;42.668;23.312;2023-05-18T14:40:20;7.33;;;5.30;;
8482;SDS011;4278;42.668;23.312;2023-05-18T14:42:47;10.37;;;5.60;;
8482;SDS011;4278;42.668;23.312;2023-05-18T14:45:14;9.30;;;5.63;;
8482;SDS011;4278;42.668;23.312;2023-05-18T14:47:41;12.73;;;6.43;;
8482;SDS011;4278;42.668;23.312;2023-05-18T14:50:08;6.83;;;5.40;;
8482;SDS011;4278;42.668;23.312;2023-05-18T14:52:36;8.50;;;6.13;;
8482;SDS011;4278;42.668;23.312;2023-05-18T14:55:03;8.60;;;5.77;;
8482;SDS011;4278;42.668;23.312;2023-05-18T14:57:31;10.23;;;6.73;;
8482;SDS011;4278;42.668;23.312;2023-05-18T14:59:58;9.50;;;5.33;;
8482;SDS011;4278;42.668;23.312;2023-05-18T15:02:25;8.03;;;5.17;;
8482;SDS011;4278;42.668;23.312;2023-05-18T15:04:52;7.07;;;4.17;;
8482;SDS011;4278;42.668;23.312;2023-05-18T15:07:19;6.33;;;4.80;;